Time,TemperatureF,DewpointF,PressureIn,WindDirection,WindDirectionDegrees,WindSpeedMPH,WindSpeedGustMPH,Humidity,HourlyPrecipIn,Conditions,Clouds,dailyrainin,SoftwareType,DateUTC
2013-06-25 00:01:00,67.0,63.0,30.00,SSW,202,0.0,0.0,87,0.02,,,0.45,,2013-06-25 04:01:00,
2013-06-25 00:02:00,67.0,63.0,30.01,SW,225,0.0,0.0,87,0.04,,,0.47,,2013-06-25 04:02:00,
2013-06-25 00:11:00,67.0,63.0,30.02,SW,225,0.0,0.0,87,0.04,,,0.47,,2013-06-25 04:11:00,
2013-06-25 00:22:00,67.0,63.0,30.02,SW,225,0.0,0.0,87,0.04,,,0.47,,2013-06-25 04:22:00,
2013-06-25 00:34:00,67.0,63.0,30.03,SSW,202,0.0,0.0,88,0.02,,,0.47,,2013-06-25 04:34:00,
2013-06-25 00:43:00,67.0,63.0,30.04,ESE,112,0.0,5.0,88,0.02,,,0.47,,2013-06-25 04:43:00,
2013-06-25 00:52:00,67.0,63.0,30.04,NNW,337,0.0,2.0,88,0.02,,,0.47,,2013-06-25 04:52:00,
2013-06-25 01:22:00,66.0,62.0,30.04,NW,315,0.0,0.0,88,0.00,,,0.47,,2013-06-25 05:22:00,
2013-06-25 01:32:00,66.0,62.0,30.04,NW,315,0.0,0.0,88,0.00,,,0.47,,2013-06-25 05:32:00,
2013-06-25 01:44:00,66.0,62.0,30.04,NW,315,0.0,0.0,88,0.00,,,0.47,,2013-06-25 05:44:00,
2013-06-25 01:52:00,66.0,62.0,30.04,NW,315,0.0,0.0,88,0.00,,,0.47,,2013-06-25 05:52:00,
2013-06-25 02:01:00,66.0,62.0,30.03,NW,315,0.0,0.0,88,0.00,,,0.47,,2013-06-25 06:01:00,
2013-06-25 02:11:00,66.0,62.0,30.03,NW,315,0.0,0.0,88,0.00,,,0.47,,2013-06-25 06:11:00,
2013-06-25 02:43:00,66.0,62.0,30.02,NW,315,0.0,0.0,88,0.00,,,0.47,,2013-06-25 06:43:00,
2013-06-25 02:52:00,66.0,62.0,30.02,NW,315,0.0,0.0,88,0.00,,,0.47,,2013-06-25 06:52:00,
2013-06-25 03:02:00,66.0,62.0,30.01,NW,315,0.0,0.0,88,0.00,,,0.47,,2013-06-25 07:02:00,
2013-06-25 03:11:00,66.0,62.0,30.02,NW,315,0.0,0.0,88,0.00,,,0.47,,2013-06-25 07:11:00,
2013-06-25 03:22:00,66.0,62.0,30.01,NW,315,0.0,0.0,88,0.00,,,0.47,,2013-06-25 07:22:00,
2013-06-25 03:33:00,66.0,62.0,30.01,NW,315,0.0,0.0,88,0.00,,,0.47,,2013-06-25 07:33:00,
2013-06-25 03:43:00,66.0,62.0,30.02,NW,315,0.0,0.0,88,0.00,,,0.47,,2013-06-25 07:43:00,
2013-06-25 03:52:00,66.0,62.0,30.02,NW,315,0.0,0.0,88,0.00,,,0.47,,2013-06-25 07:52:00,
2013-06-25 04:02:00,66.0,62.0,30.02,NW,315,0.0,0.0,88,0.00,,,0.47,,2013-06-25 08:02:00,
2013-06-25 04:11:00,66.0,62.0,30.02,NW,315,0.0,0.0,88,0.00,,,0.47,,2013-06-25 08:11:00,
2013-06-25 04:34:00,66.0,62.0,30.01,NW,315,0.0,0.0,88,0.00,,,0.47,,2013-06-25 08:34:00,
2013-06-25 04:43:00,66.0,62.0,30.01,NW,315,0.0,0.0,88,0.00,,,0.47,,2013-06-25 08:43:00,
2013-06-25 04:53:00,66.0,62.0,30.01,NW,315,0.0,0.0,88,0.00,,,0.47,,2013-06-25 08:53:00,
2013-06-25 05:02:00,66.0,63.0,30.01,West,270,0.0,0.0,89,0.00,,,0.47,,2013-06-25 09:02:00,
2013-06-25 05:43:00,67.0,64.0,30.02,WNW,292,0.0,0.0,89,0.00,,,0.47,,2013-06-25 09:43:00,
2013-06-25 05:52:00,67.0,64.0,30.02,WNW,292,0.0,0.0,89,0.00,,,0.47,,2013-06-25 09:52:00,
2013-06-25 06:01:00,67.0,64.0,30.02,WNW,292,0.0,0.0,89,0.00,,,0.47,,2013-06-25 10:01:00,
2013-06-25 06:42:00,68.0,65.0,30.02,WSW,247,0.0,0.0,90,0.00,,,0.47,,2013-06-25 10:42:00,
2013-06-25 06:52:00,68.0,65.0,30.01,WSW,247,0.0,0.0,90,0.00,,,0.47,,2013-06-25 10:52:00,
2013-06-25 07:52:00,69.0,66.0,30.01,South,180,0.0,0.0,91,0.00,,,0.47,,2013-06-25 11:52:00,
2013-06-25 08:02:00,69.0,66.0,30.02,SW,225,0.0,0.0,91,0.00,,,0.47,,2013-06-25 12:02:00,
2013-06-25 08:11:00,69.0,66.0,30.02,NW,315,0.0,0.0,91,0.00,,,0.47,,2013-06-25 12:11:00,
2013-06-25 08:22:00,70.0,67.0,30.02,SW,225,0.0,0.0,91,0.00,,,0.47,,2013-06-25 12:22:00,
2013-06-25 08:33:00,70.0,67.0,30.02,West,270,0.0,1.0,91,0.00,,,0.47,,2013-06-25 12:33:00,
2013-06-25 09:53:00,73.0,70.0,30.00,WSW,247,3.0,3.0,90,0.00,,,0.47,,2013-06-25 13:53:00,
2013-06-25 10:01:00,73.0,70.0,30.00,WSW,247,3.0,3.0,90,0.00,,,0.47,,2013-06-25 14:01:00,
2013-06-25 10:11:00,75.0,71.0,30.00,North,-999,-999.0,-999.0,88,0.00,,,0.47,,2013-06-25 14:11:00,
2013-06-25 10:23:00,75.0,71.0,30.01,WSW,247,0.0,0.0,88,0.00,,,0.47,,2013-06-25 14:23:00,
2013-06-25 10:34:00,76.0,72.0,30.01,SW,225,0.0,1.0,86,0.00,,,0.47,,2013-06-25 14:34:00,
2013-06-25 10:43:00,77.0,72.0,30.00,SE,135,3.0,3.0,85,0.00,,,0.47,,2013-06-25 14:43:00,
2013-06-25 10:53:00,77.0,72.0,30.01,NW,319,1.0,5.0,84,0.00,,,0.47,,2013-06-25 14:53:00,
2013-06-25 11:11:00,78.0,72.0,30.01,West,270,0.0,1.0,81,0.00,,,0.47,,2013-06-25 15:11:00,
2013-06-25 11:22:00,79.0,73.0,30.01,NW,315,0.0,1.0,81,0.00,,,0.47,,2013-06-25 15:22:00,
2013-06-25 11:32:00,78.0,72.0,30.01,WSW,247,5.0,5.0,81,0.00,,,0.47,,2013-06-25 15:32:00,
2013-06-25 11:44:00,78.0,72.0,30.01,West,270,4.0,5.0,81,0.00,,,0.47,,2013-06-25 15:44:00,
2013-06-25 11:53:00,78.0,71.0,30.01,NNW,337,0.0,4.0,80,0.00,,,0.47,,2013-06-25 15:53:00,
2013-06-25 17:43:00,86.0,71.0,29.91,WSW,247,2.0,6.0,61,0.00,,,0.47,,2013-06-25 21:43:00,
2013-06-25 17:53:00,86.0,71.0,29.90,SSE,157,0.0,2.0,62,0.00,,,0.47,,2013-06-25 21:53:00,
2013-06-25 18:11:00,86.0,71.0,29.89,West,270,0.0,3.0,62,0.00,,,0.47,,2013-06-25 22:11:00,
2013-06-25 18:22:00,86.0,72.0,29.89,WSW,247,0.0,4.0,63,0.00,,,0.47,,2013-06-25 22:22:00,
2013-06-25 18:42:00,86.0,71.0,29.89,WSW,247,3.0,3.0,62,0.00,,,0.47,,2013-06-25 22:42:00,
2013-06-25 18:52:00,86.0,71.0,29.88,West,277,2.0,11.0,62,0.00,,,0.47,,2013-06-25 22:52:00,
2013-06-25 19:11:00,85.0,71.0,29.88,SSW,202,0.0,1.0,63,0.00,,,0.47,,2013-06-25 23:11:00,
2013-06-25 19:22:00,85.0,71.0,29.88,WSW,247,1.0,1.0,64,0.00,,,0.47,,2013-06-25 23:22:00,
2013-06-25 19:34:00,84.0,70.0,29.88,SW,225,0.0,1.0,64,0.00,,,0.47,,2013-06-25 23:34:00,
2013-06-25 19:44:00,84.0,71.0,29.88,SW,225,2.0,2.0,65,0.00,,,0.47,,2013-06-25 23:44:00,
2013-06-25 19:52:00,84.0,71.0,29.89,WSW,247,0.0,2.0,65,0.00,,,0.47,,2013-06-25 23:52:00,
2013-06-25 20:02:00,83.0,70.0,29.88,WSW,247,0.0,0.0,66,0.00,,,0.47,,2013-06-26 00:02:00,
2013-06-25 20:11:00,83.0,70.0,29.88,SSE,157,0.0,0.0,66,0.00,,,0.47,,2013-06-26 00:11:00,
2013-06-25 20:22:00,83.0,70.0,29.88,WNW,292,0.0,0.0,66,0.00,,,0.47,,2013-06-26 00:22:00,
2013-06-25 20:33:00,83.0,70.0,29.88,WSW,247,0.0,0.0,66,0.00,,,0.47,,2013-06-26 00:33:00,
2013-06-25 20:42:00,83.0,70.0,29.88,NW,315,0.0,0.0,66,0.00,,,0.47,,2013-06-26 00:42:00,
2013-06-25 20:52:00,82.0,70.0,29.87,SW,225,3.0,3.0,67,0.00,,,0.47,,2013-06-26 00:52:00,
2013-06-25 21:01:00,82.0,70.0,29.88,WNW,292,0.0,4.0,67,0.00,,,0.47,,2013-06-26 01:01:00,
2013-06-25 21:11:00,82.0,70.0,29.88,WNW,292,0.0,0.0,68,0.00,,,0.47,,2013-06-26 01:11:00,
2013-06-25 21:22:00,82.0,70.0,29.88,NW,315,0.0,0.0,68,0.00,,,0.47,,2013-06-26 01:22:00,
2013-06-25 21:33:00,81.0,69.0,29.87,SW,225,0.0,7.0,68,0.00,,,0.47,,2013-06-26 01:33:00,
2013-06-25 21:43:00,81.0,69.0,29.87,ENE,67,0.0,0.0,68,0.00,,,0.47,,2013-06-26 01:43:00,
2013-06-25 21:53:00,81.0,70.0,29.88,WSW,247,0.0,0.0,69,0.00,,,0.47,,2013-06-26 01:53:00,
2013-06-25 22:02:00,81.0,69.0,29.89,NW,315,0.0,6.0,67,0.00,,,0.47,,2013-06-26 02:02:00,
2013-06-25 22:43:00,79.0,67.0,29.90,North,0,0.0,1.0,66,0.00,,,0.04,,2013-06-26 02:43:00,
2013-06-25 22:53:00,78.0,66.0,29.92,NNW,337,2.0,2.0,66,0.00,,,0.04,,2013-06-26 02:53:00,
2013-06-25 23:02:00,77.0,65.0,29.92,SSW,202,0.0,4.0,66,0.00,,,0.04,,2013-06-26 03:02:00,
2013-06-25 23:43:00,74.0,63.0,29.92,SSW,202,0.0,0.0,69,0.00,,,0.02,,2013-06-26 03:43:00,
2013-06-25 23:52:00,74.0,63.0,29.92,SSW,202,0.0,0.0,69,0.00,,,0.02,,2013-06-26 03:52:00,